Time;durP1;ratioP1;P1;durP2;ratioP2;P2;SDS_P1;SDS_P2;PMS_P1;PMS_P2;Temp;Humidity;BMP_temperature;BMP_pressure;BME280_temperature;BME280_humidity;BME280_pressure;Samples;Min_cycle;Max_cycle;Signal;HPM_P1;HPM_P2
2022/10/27 00:02:13;;;;;;;15.35;9.85;;;13.20;99.90;;;;;;5033480;28;20033;-60
2022/10/27 00:04:39;;;;;;;13.00;8.20;;;13.20;99.90;;;;;;5033272;28;20045;-60
2022/10/27 00:07:04;;;;;;;14.13;8.05;;;13.20;99.90;;;;;;5033033;28;20104;-61
2022/10/27 00:09:30;;;;;;;13.55;7.13;;;13.20;99.90;;;;;;5030501;28;20038;-61
2022/10/27 00:11:56;;;;;;;11.13;6.78;;;13.10;99.90;;;;;;5032664;28;20036;-61
2022/10/27 00:14:22;;;;;;;11.30;6.10;;;13.10;99.90;;;;;;5031913;28;20030;-60
2022/10/27 00:16:55;;;;;;;10.32;6.13;;;13.10;99.90;;;;;;5031917;28;20024;-61
2022/10/27 00:19:24;;;;;;;19.58;10.63;;;13.10;99.90;;;;;;5030005;28;20052;-61
2022/10/27 00:21:50;;;;;;;35.30;18.75;;;13.10;99.90;;;;;;5030949;28;20021;-60
2022/10/27 00:24:17;;;;;;;34.83;17.98;;;13.20;99.90;;;;;;5032142;28;20490;-62
2022/10/27 00:26:43;;;;;;;40.03;20.08;;;13.20;99.90;;;;;;5032763;28;20510;-62
2022/10/27 00:29:09;;;;;;;42.80;23.45;;;13.20;99.90;;;;;;5031495;28;20052;-59
2022/10/27 00:31:34;;;;;;;47.67;26.42;;;13.20;99.90;;;;;;5032944;28;20032;-60
2022/10/27 00:34:00;;;;;;;41.45;23.67;;;13.30;99.90;;;;;;5032979;28;20101;-59
2022/10/27 00:36:26;;;;;;;42.80;23.23;;;13.30;99.90;;;;;;5033489;28;20021;-59
2022/10/27 00:38:56;;;;;;;27.80;16.30;;;13.30;99.90;;;;;;5033819;28;20029;-60
2022/10/27 00:41:44;;;;;;;21.85;12.95;;;13.30;99.90;;;;;;5032826;28;20029;-59
2022/10/27 00:44:45;;;;;;;21.40;12.13;;;13.40;99.90;;;;;;5033118;28;20067;-59
2022/10/27 00:47:14;;;;;;;26.90;14.20;;;13.50;99.90;;;;;;5036625;28;20029;-59
2022/10/27 00:49:45;;;;;;;31.98;18.67;;;13.60;99.90;;;;;;5032961;28;20432;-66
2022/10/27 00:52:34;;;;;;;22.63;14.00;;;13.60;99.90;;;;;;5033832;28;20033;-60
2022/10/27 00:55:22;;;;;;;17.45;9.93;;;13.60;99.90;;;;;;5033228;28;20075;-66
2022/10/27 00:57:50;;;;;;;16.75;9.50;;;13.50;99.90;;;;;;5030154;28;20065;-63
2022/10/27 01:00:16;;;;;;;12.05;6.45;;;13.50;99.90;;;;;;5033228;28;20022;-59
2022/10/27 01:02:43;;;;;;;10.48;5.88;;;13.40;99.90;;;;;;5032746;28;20485;-59
2022/10/27 01:05:26;;;;;;;10.38;5.75;;;13.40;99.90;;;;;;5033796;28;20025;-67
2022/10/27 01:07:55;;;;;;;8.38;4.97;;;13.30;99.90;;;;;;5033178;28;20069;-65
2022/10/27 01:10:22;;;;;;;8.27;4.53;;;13.30;99.90;;;;;;5032286;28;20478;-67
2022/10/27 01:12:48;;;;;;;10.68;5.65;;;13.20;99.90;;;;;;5033465;28;20095;-63
2022/10/27 01:15:15;;;;;;;8.68;5.05;;;13.10;99.90;;;;;;5031360;28;20036;-65
2022/10/27 01:18:03;;;;;;;9.77;5.38;;;13.10;99.90;;;;;;5033589;28;20032;-64
2022/10/27 01:20:44;;;;;;;11.93;6.75;;;13.00;99.90;;;;;;5032795;28;20029;-66
2022/10/27 01:23:26;;;;;;;12.02;6.85;;;13.00;99.90;;;;;;5032368;28;20441;-59
2022/10/27 01:26:13;;;;;;;11.40;6.28;;;12.90;99.90;;;;;;5032812;28;20021;-59
2022/10/27 01:29:06;;;;;;;12.60;6.05;;;12.90;99.90;;;;;;5033008;28;20125;-60
2022/10/27 01:31:42;;;;;;;12.40;6.43;;;12.90;99.90;;;;;;5032323;28;20371;-60
2022/10/27 01:34:34;;;;;;;9.20;5.55;;;12.90;99.90;;;;;;5032735;28;20021;-59
2022/10/27 01:37:11;;;;;;;8.50;5.05;;;12.80;99.90;;;;;;5032219;28;20028;-59
2022/10/27 01:39:59;;;;;;;8.80;4.82;;;12.80;99.90;;;;;;5032356;28;20466;-59
2022/10/27 01:42:33;;;;;;;10.02;4.68;;;12.80;99.90;;;;;;5032014;28;20018;-59
2022/10/27 01:45:01;;;;;;;9.15;4.72;;;12.80;99.90;;;;;;5032204;28;20133;-60
2022/10/27 01:47:30;;;;;;;9.25;5.00;;;12.80;99.90;;;;;;5031905;28;20036;-60
2022/10/27 01:49:55;;;;;;;10.38;5.70;;;12.80;99.90;;;;;;5032486;28;20052;-59
2022/10/27 01:52:47;;;;;;;9.90;6.03;;;12.80;99.90;;;;;;5031623;28;20022;-59
2022/10/27 01:55:40;;;;;;;10.65;5.57;;;12.80;99.90;;;;;;5032195;28;20447;-62
2022/10/27 01:58:24;;;;;;;9.07;5.25;;;12.90;99.90;;;;;;5031848;28;20061;-59
2022/10/27 02:01:36;;;;;;;12.18;5.85;;;13.00;99.90;;;;;;5031084;28;20363;-60
2022/10/27 02:04:24;;;;;;;12.85;6.80;;;13.00;99.90;;;;;;5032298;28;20120;-59
2022/10/27 02:06:56;;;;;;;21.88;10.95;;;13.10;99.90;;;;;;5031945;28;20079;-60
2022/10/27 02:09:50;;;;;;;23.60;12.82;;;13.20;99.90;;;;;;5031757;28;20064;-59
2022/10/27 02:12:23;;;;;;;21.60;11.85;;;13.20;99.90;;;;;;5029745;28;20443;-60
2022/10/27 02:14:52;;;;;;;25.13;13.05;;;13.20;99.90;;;;;;5032211;28;20026;-63
2022/10/27 02:17:18;;;;;;;26.75;14.13;;;13.20;99.90;;;;;;5031910;28;20025;-60
2022/10/27 02:19:47;;;;;;;34.80;17.30;;;13.20;99.90;;;;;;5031376;28;20108;-60
2022/10/27 02:22:14;;;;;;;26.70;15.70;;;13.20;99.90;;;;;;5031029;28;20036;-61
2022/10/27 02:24:41;;;;;;;25.33;14.20;;;13.30;99.90;;;;;;5031910;28;20061;-60
2022/10/27 02:27:18;;;;;;;25.20;13.57;;;13.30;99.90;;;;;;5031148;28;20025;-59
2022/10/27 02:29:47;;;;;;;24.33;14.05;;;13.30;99.90;;;;;;5031933;28;20477;-59
2022/10/27 02:32:20;;;;;;;20.45;11.30;;;13.30;99.90;;;;;;5031587;28;20072;-60
2022/10/27 02:34:47;;;;;;;17.33;8.50;;;13.30;99.90;;;;;;5031107;28;20121;-59
2022/10/27 02:37:29;;;;;;;17.17;9.25;;;13.30;99.90;;;;;;5031077;28;20119;-61
2022/10/27 02:39:54;;;;;;;14.82;7.18;;;13.30;99.90;;;;;;5031156;28;20029;-59
2022/10/27 02:42:20;;;;;;;10.85;5.85;;;13.30;99.90;;;;;;5031314;28;20359;-61
2022/10/27 02:44:45;;;;;;;9.65;5.15;;;13.30;99.90;;;;;;5031231;28;20045;-59
2022/10/27 02:47:11;;;;;;;11.07;5.47;;;13.30;99.90;;;;;;5030830;28;20037;-59
2022/10/27 02:49:37;;;;;;;8.57;5.22;;;13.30;99.90;;;;;;5031241;28;20517;-59
2022/10/27 02:52:05;;;;;;;10.00;5.72;;;13.30;99.90;;;;;;5038278;28;20079;-59
2022/10/27 02:54:31;;;;;;;8.20;4.72;;;13.30;99.90;;;;;;5033029;28;20017;-60
2022/10/27 02:56:58;;;;;;;8.40;5.03;;;13.30;99.90;;;;;;5031624;28;20033;-65
2022/10/27 02:59:24;;;;;;;9.40;5.82;;;13.30;99.90;;;;;;5030892;28;20034;-59
2022/10/27 03:01:49;;;;;;;8.48;4.93;;;13.30;99.90;;;;;;5030965;28;20477;-67
2022/10/27 03:04:15;;;;;;;8.18;5.10;;;13.30;99.90;;;;;;5031041;28;20022;-59
2022/10/27 03:06:40;;;;;;;13.30;6.20;;;13.20;99.90;;;;;;5031306;28;20104;-65
2022/10/27 03:09:06;;;;;;;14.95;7.45;;;13.20;99.90;;;;;;5030615;28;20025;-64
2022/10/27 03:11:32;;;;;;;10.40;6.25;;;13.20;99.90;;;;;;5031055;28;20033;-62
2022/10/27 03:13:57;;;;;;;9.98;5.55;;;13.20;99.90;;;;;;5031424;28;20018;-59
2022/10/27 03:16:23;;;;;;;10.00;6.25;;;13.20;99.90;;;;;;5030047;28;20022;-66
2022/10/27 03:18:49;;;;;;;9.80;5.80;;;13.20;99.90;;;;;;5031285;28;20083;-60
2022/10/27 03:21:14;;;;;;;9.45;6.25;;;13.20;99.90;;;;;;5030416;28;20022;-61
2022/10/27 03:23:40;;;;;;;8.30;5.55;;;13.20;99.90;;;;;;5030327;28;20083;-59
2022/10/27 03:26:06;;;;;;;10.85;5.60;;;13.10;99.90;;;;;;5031088;28;20024;-59
2022/10/27 03:28:34;;;;;;;10.50;6.13;;;13.10;99.90;;;;;;5030713;28;20033;-60
2022/10/27 03:31:00;;;;;;;10.45;5.97;;;13.10;99.90;;;;;;5030381;28;20120;-59
2022/10/27 03:33:26;;;;;;;8.90;5.70;;;13.10;99.90;;;;;;5030465;28;20026;-61
2022/10/27 03:35:52;;;;;;;14.05;6.90;;;13.00;99.90;;;;;;5027276;28;20108;-59
2022/10/27 03:38:18;;;;;;;12.32;7.05;;;13.00;99.90;;;;;;5030467;28;20541;-59
2022/10/27 03:40:43;;;;;;;11.00;6.00;;;13.00;99.90;;;;;;5030841;28;20513;-60
2022/10/27 03:43:12;;;;;;;10.82;5.93;;;12.90;99.90;;;;;;5030429;28;20022;-59
2022/10/27 03:45:38;;;;;;;9.23;6.00;;;12.90;99.90;;;;;;5030486;28;20087;-61
2022/10/27 03:48:12;;;;;;;11.65;6.07;;;12.80;99.90;;;;;;5029944;28;20037;-60
2022/10/27 03:50:38;;;;;;;10.05;5.60;;;12.80;99.90;;;;;;5030464;28;20049;-60
2022/10/27 03:53:04;;;;;;;10.60;6.10;;;12.80;99.90;;;;;;5030790;28;20478;-60
2022/10/27 03:55:31;;;;;;;8.32;5.63;;;12.70;99.90;;;;;;5029781;28;20029;-61
2022/10/27 03:57:57;;;;;;;7.15;5.13;;;12.70;99.90;;;;;;5030508;28;20017;-60
2022/10/27 04:00:23;;;;;;;8.48;4.47;;;12.60;99.90;;;;;;5030320;28;20061;-60
2022/10/27 04:02:53;;;;;;;6.82;4.68;;;12.60;99.90;;;;;;5030313;28;20049;-60
2022/10/27 04:05:18;;;;;;;6.45;4.35;;;12.60;99.90;;;;;;5030433;28;20097;-59
2022/10/27 04:07:45;;;;;;;8.88;4.60;;;12.60;99.90;;;;;;5030583;28;20037;-63
2022/10/27 04:10:11;;;;;;;8.05;4.72;;;12.60;99.90;;;;;;5030056;28;20505;-63
2022/10/27 04:12:37;;;;;;;9.70;5.22;;;12.50;99.90;;;;;;5030563;28;20029;-61
2022/10/27 04:15:03;;;;;;;9.05;5.43;;;12.40;99.90;;;;;;5030591;28;20017;-59
2022/10/27 04:17:28;;;;;;;9.30;5.50;;;12.40;99.90;;;;;;5028558;28;20030;-61
2022/10/27 04:19:54;;;;;;;7.93;5.47;;;12.40;99.90;;;;;;5030550;28;20120;-60
2022/10/27 04:22:19;;;;;;;8.95;6.45;;;12.30;99.90;;;;;;5030031;28;20013;-61
2022/10/27 04:24:45;;;;;;;10.30;6.38;;;12.20;99.90;;;;;;5030032;28;20067;-59
2022/10/27 04:27:11;;;;;;;11.68;6.00;;;12.20;99.90;;;;;;5030390;28;20462;-62
2022/10/27 04:29:36;;;;;;;11.57;6.32;;;12.10;99.90;;;;;;5030013;28;20478;-60
2022/10/27 04:32:02;;;;;;;9.95;5.75;;;12.10;99.90;;;;;;5029875;28;20414;-60
2022/10/27 04:34:27;;;;;;;7.05;5.40;;;12.00;99.90;;;;;;5029974;28;20389;-62
2022/10/27 04:36:54;;;;;;;9.02;5.72;;;12.00;99.90;;;;;;5030129;28;20033;-63
2022/10/27 04:39:20;;;;;;;7.10;5.00;;;12.00;99.90;;;;;;5029173;28;20075;-59
2022/10/27 04:41:45;;;;;;;8.23;5.32;;;11.90;99.90;;;;;;5030592;28;20401;-60
2022/10/27 04:44:11;;;;;;;9.05;5.30;;;11.80;99.90;;;;;;5030397;28;20052;-60
2022/10/27 04:46:37;;;;;;;8.13;5.50;;;11.80;99.90;;;;;;5029968;28;20441;-63
2022/10/27 04:49:03;;;;;;;8.85;5.40;;;11.80;99.90;;;;;;5035160;28;20075;-60
2022/10/27 04:51:29;;;;;;;8.00;5.32;;;11.80;99.90;;;;;;5034101;28;20022;-60
2022/10/27 04:53:54;;;;;;;10.00;5.85;;;11.70;99.90;;;;;;5035112;28;20661;-61
2022/10/27 04:56:20;;;;;;;10.00;5.43;;;11.70;99.90;;;;;;5033846;28;20067;-61
2022/10/27 04:58:45;;;;;;;11.32;5.28;;;11.70;99.90;;;;;;5035022;28;20028;-59
2022/10/27 05:01:12;;;;;;;9.32;5.07;;;11.60;99.90;;;;;;5033253;28;20351;-66
2022/10/27 05:03:38;;;;;;;8.02;4.75;;;11.60;99.90;;;;;;5034673;28;20018;-67
2022/10/27 05:06:04;;;;;;;7.93;4.55;;;11.60;99.90;;;;;;5033012;28;20034;-59
2022/10/27 05:08:30;;;;;;;7.65;5.07;;;11.60;99.90;;;;;;5034135;28;20033;-59
2022/10/27 05:10:56;;;;;;;8.10;4.45;;;11.60;99.90;;;;;;5034664;28;20516;-60
2022/10/27 05:13:22;;;;;;;6.65;3.70;;;11.60;99.90;;;;;;5034014;28;20033;-61
2022/10/27 05:15:48;;;;;;;7.53;4.80;;;11.70;99.90;;;;;;5034760;28;20018;-61
2022/10/27 05:18:14;;;;;;;7.88;3.67;;;11.70;99.90;;;;;;5034633;28;20030;-60
2022/10/27 05:20:39;;;;;;;10.27;4.40;;;11.70;99.90;;;;;;5033732;28;20148;-59
2022/10/27 05:23:05;;;;;;;8.45;3.63;;;11.60;99.90;;;;;;5034161;28;20052;-64
2022/10/27 05:25:30;;;;;;;6.70;3.38;;;11.70;99.90;;;;;;5033328;28;20025;-60
2022/10/27 05:28:03;;;;;;;6.30;3.60;;;11.70;99.90;;;;;;5033266;28;20033;-60
2022/10/27 05:30:29;;;;;;;8.52;3.65;;;11.70;99.90;;;;;;5034383;28;20014;-60
2022/10/27 05:32:54;;;;;;;7.97;3.58;;;11.70;99.90;;;;;;5034393;28;20327;-59
2022/10/27 05:35:20;;;;;;;7.72;4.20;;;11.70;99.90;;;;;;5032373;28;20161;-59
2022/10/27 05:37:46;;;;;;;6.68;3.53;;;11.70;99.90;;;;;;5034237;28;20053;-60
2022/10/27 05:40:11;;;;;;;7.60;3.47;;;11.70;99.90;;;;;;5034369;28;20018;-59
2022/10/27 05:42:37;;;;;;;5.75;3.67;;;11.70;99.90;;;;;;5033729;28;20083;-59
2022/10/27 05:45:03;;;;;;;9.50;3.38;;;11.70;99.90;;;;;;5033919;28;20077;-60
2022/10/27 05:47:28;;;;;;;7.47;3.72;;;11.70;99.90;;;;;;5031732;28;20366;-60
2022/10/27 05:49:54;;;;;;;6.75;3.30;;;11.70;99.90;;;;;;5031874;28;20478;-59
2022/10/27 05:52:19;;;;;;;6.18;3.38;;;11.60;99.90;;;;;;5049418;28;20021;-60
2022/10/27 05:54:45;;;;;;;8.13;3.50;;;11.70;99.90;;;;;;5033021;28;20033;-59
2022/10/27 05:57:10;;;;;;;6.65;3.78;;;11.60;99.90;;;;;;5032761;28;20021;-60
2022/10/27 05:59:36;;;;;;;5.47;3.42;;;11.60;99.90;;;;;;5033765;28;20017;-60
2022/10/27 06:02:01;;;;;;;7.25;4.13;;;11.60;99.90;;;;;;5033610;28;20029;-60
2022/10/27 06:04:27;;;;;;;5.95;3.08;;;11.60;99.90;;;;;;5034604;28;20037;-61
2022/10/27 06:06:53;;;;;;;6.40;3.28;;;11.50;99.90;;;;;;5034869;28;20036;-60
2022/10/27 06:09:18;;;;;;;6.88;3.58;;;11.60;99.90;;;;;;5033393;28;20044;-59
2022/10/27 06:11:44;;;;;;;5.90;3.63;;;11.50;99.90;;;;;;5032408;28;20017;-60
2022/10/27 06:14:09;;;;;;;7.82;3.53;;;11.50;99.90;;;;;;5033336;28;20032;-60
2022/10/27 06:16:35;;;;;;;6.47;3.60;;;11.50;99.90;;;;;;5032568;28;20128;-60
2022/10/27 06:19:01;;;;;;;7.53;3.72;;;11.50;99.90;;;;;;5033303;28;20105;-59
2022/10/27 06:21:26;;;;;;;9.35;4.30;;;11.50;99.90;;;;;;5033139;28;20057;-59
2022/10/27 06:23:52;;;;;;;7.18;3.80;;;11.50;99.90;;;;;;5032612;28;20024;-60
2022/10/27 06:26:17;;;;;;;6.45;3.45;;;11.50;99.90;;;;;;5031861;28;20021;-60
2022/10/27 06:28:43;;;;;;;7.75;3.88;;;11.60;99.90;;;;;;5032839;28;20078;-61
2022/10/27 06:31:08;;;;;;;7.25;3.47;;;11.50;99.90;;;;;;5031754;28;20025;-59
2022/10/27 06:33:34;;;;;;;7.55;3.42;;;11.60;99.90;;;;;;5030945;28;20588;-65
2022/10/27 06:36:00;;;;;;;8.05;3.90;;;11.60;99.90;;;;;;5033379;28;20021;-68
2022/10/27 06:38:25;;;;;;;8.07;4.53;;;11.60;99.90;;;;;;5032653;28;20022;-61
2022/10/27 06:40:51;;;;;;;7.55;3.72;;;11.60;99.90;;;;;;5031724;28;20032;-60
2022/10/27 06:43:16;;;;;;;9.00;3.95;;;11.60;99.90;;;;;;5029779;28;20113;-60
2022/10/27 06:45:46;;;;;;;6.50;3.78;;;11.70;99.90;;;;;;5031585;28;20096;-62
2022/10/27 06:48:12;;;;;;;8.40;4.22;;;11.70;99.90;;;;;;5030829;28;20032;-61
2022/10/27 06:50:38;;;;;;;9.07;5.07;;;11.70;99.90;;;;;;5032273;28;20083;-61
2022/10/27 06:53:04;;;;;;;11.07;4.47;;;11.70;99.90;;;;;;5031547;28;20057;-60
2022/10/27 06:55:30;;;;;;;9.30;5.22;;;11.70;99.90;;;;;;5028708;28;20037;-62
2022/10/27 06:57:56;;;;;;;9.05;5.03;;;11.80;99.90;;;;;;5031254;28;20026;-59
2022/10/27 07:00:22;;;;;;;9.05;4.90;;;11.80;99.90;;;;;;5022810;28;20091;-61
2022/10/27 07:02:47;;;;;;;8.45;4.93;;;11.80;99.90;;;;;;5023727;28;20494;-59
2022/10/27 07:05:13;;;;;;;7.35;4.40;;;11.80;99.90;;;;;;5031814;28;20033;-59
2022/10/27 07:07:39;;;;;;;6.60;4.00;;;11.80;99.90;;;;;;5029674;28;20117;-55
2022/10/27 07:10:06;;;;;;;6.88;3.85;;;11.90;99.90;;;;;;5030409;28;20395;-58
2022/10/27 07:12:32;;;;;;;9.23;4.38;;;11.90;99.90;;;;;;5030384;28;20024;-61
2022/10/27 07:14:58;;;;;;;8.02;3.90;;;11.90;99.90;;;;;;5031643;28;20029;-59
2022/10/27 07:17:23;;;;;;;9.30;4.00;;;11.90;99.90;;;;;;5029973;28;20102;-60
2022/10/27 07:19:49;;;;;;;8.68;3.92;;;12.00;99.90;;;;;;5030210;28;20062;-67
2022/10/27 07:22:15;;;;;;;9.63;3.70;;;12.00;99.90;;;;;;5030305;28;20017;-65
2022/10/27 07:24:40;;;;;;;7.20;3.72;;;12.00;99.90;;;;;;5029729;28;20565;-66
2022/10/27 07:27:06;;;;;;;6.03;3.85;;;12.10;99.90;;;;;;5031070;28;20017;-67
2022/10/27 07:29:32;;;;;;;7.63;4.15;;;12.10;99.90;;;;;;5031644;28;20033;-69
2022/10/27 07:31:57;;;;;;;7.82;3.80;;;12.20;99.90;;;;;;5031180;28;20029;-62
2022/10/27 07:34:23;;;;;;;8.35;4.35;;;12.20;99.90;;;;;;5030665;28;20057;-61
2022/10/27 07:36:49;;;;;;;10.30;5.45;;;12.20;99.90;;;;;;5031797;28;20147;-69
2022/10/27 07:39:14;;;;;;;8.98;5.03;;;12.30;99.90;;;;;;5031270;28;20021;-65
2022/10/27 07:41:40;;;;;;;9.32;4.93;;;12.40;99.90;;;;;;5030617;28;20104;-63
2022/10/27 07:44:05;;;;;;;11.00;5.15;;;12.50;99.90;;;;;;5031982;28;20029;-68
2022/10/27 07:46:31;;;;;;;11.10;5.25;;;12.50;99.90;;;;;;5031166;28;20041;-59
2022/10/27 07:48:57;;;;;;;8.88;4.70;;;12.60;99.90;;;;;;5030259;28;20070;-60
2022/10/27 07:51:22;;;;;;;8.85;5.07;;;12.60;99.90;;;;;;5030870;28;20047;-60
2022/10/27 07:53:49;;;;;;;8.80;4.63;;;12.70;99.90;;;;;;5030749;28;20029;-59
2022/10/27 07:56:16;;;;;;;7.97;4.50;;;12.80;99.90;;;;;;5028486;28;20033;-56
2022/10/27 07:58:41;;;;;;;7.60;4.05;;;12.80;99.90;;;;;;5031340;28;20017;-61
2022/10/27 08:01:07;;;;;;;7.28;4.20;;;12.90;99.90;;;;;;5031017;28;20442;-64
2022/10/27 08:03:33;;;;;;;8.35;4.18;;;12.90;99.90;;;;;;5030292;28;20021;-62
2022/10/27 08:06:03;;;;;;;8.23;4.32;;;12.90;99.90;;;;;;5031303;28;20036;-59
2022/10/27 08:08:30;;;;;;;7.65;4.57;;;13.00;99.90;;;;;;5030986;28;20037;-61
2022/10/27 08:10:56;;;;;;;9.50;4.05;;;13.00;99.90;;;;;;5030612;28;20494;-60
2022/10/27 08:13:22;;;;;;;7.38;4.15;;;13.00;99.90;;;;;;5028780;28;20088;-60
2022/10/27 08:15:47;;;;;;;8.88;4.65;;;13.10;99.90;;;;;;5027534;28;20049;-59
2022/10/27 08:18:13;;;;;;;8.73;4.28;;;13.10;99.90;;;;;;5029360;28;20056;-59
2022/10/27 08:20:44;;;;;;;9.23;4.70;;;13.10;99.90;;;;;;5028274;28;20362;-60
2022/10/27 08:23:19;;;;;;;7.18;4.45;;;13.10;99.90;;;;;;5033903;28;20022;-60
2022/10/27 08:25:45;;;;;;;7.60;3.65;;;13.20;99.90;;;;;;5014639;28;20052;-59
2022/10/27 08:28:12;;;;;;;10.30;4.35;;;13.20;99.90;;;;;;5015461;28;20033;-59
2022/10/27 08:30:38;;;;;;;7.53;4.22;;;13.20;99.90;;;;;;5014295;28;20045;-59
2022/10/27 08:33:04;;;;;;;8.23;3.75;;;13.30;99.90;;;;;;5030628;28;20029;-60
2022/10/27 08:35:32;;;;;;;6.57;4.35;;;13.40;99.90;;;;;;5034864;28;20115;-59
2022/10/27 08:38:05;;;;;;;7.18;3.85;;;13.50;99.90;;;;;;5034634;28;20087;-61
2022/10/27 08:40:59;;;;;;;14.30;4.28;;;13.60;99.90;;;;;;5032425;28;20061;-61
2022/10/27 08:43:54;;;;;;;7.72;4.35;;;13.70;99.90;;;;;;5014513;28;20143;-58
2022/10/27 08:46:30;;;;;;;8.32;3.88;;;13.90;99.90;;;;;;5026043;28;20075;-60
2022/10/27 08:49:01;;;;;;;8.90;4.13;;;14.10;99.90;;;;;;5033961;28;20120;-60
2022/10/27 08:51:30;;;;;;;8.27;3.92;;;14.20;99.90;;;;;;5030225;28;20021;-61
2022/10/27 08:53:57;;;;;;;8.50;4.40;;;14.30;99.90;;;;;;5033530;28;20030;-60
2022/10/27 08:56:27;;;;;;;7.10;3.75;;;14.40;99.90;;;;;;5034539;28;20100;-60
2022/10/27 08:58:53;;;;;;;9.90;4.35;;;14.50;99.90;;;;;;5032351;28;20026;-60
2022/10/27 09:01:26;;;;;;;7.63;4.60;;;14.60;99.90;;;;;;5034169;28;20581;-59
2022/10/27 09:04:17;;;;;;;8.65;4.07;;;14.60;99.90;;;;;;5034447;28;20021;-59
2022/10/27 09:07:32;;;;;;;7.85;4.35;;;14.60;99.90;;;;;;5031550;28;20030;-60
2022/10/27 09:10:02;;;;;;;6.65;3.92;;;14.70;99.90;;;;;;5010743;28;20076;-60
2022/10/27 09:12:43;;;;;;;7.55;3.97;;;14.80;99.90;;;;;;5032974;28;20029;-64
2022/10/27 09:15:45;;;;;;;13.95;4.22;;;14.90;99.90;;;;;;5032692;28;20033;-65
2022/10/27 09:18:19;;;;;;;6.78;4.15;;;15.00;99.90;;;;;;5034241;28;20021;-62
2022/10/27 09:20:56;;;;;;;10.13;4.10;;;15.00;99.90;;;;;;5046782;28;20034;-60
2022/10/27 09:23:32;;;;;;;7.35;3.50;;;15.10;99.90;;;;;;5032440;28;20041;-64
2022/10/27 09:25:58;;;;;;;7.85;3.65;;;15.20;99.90;;;;;;5029306;28;20036;-58
2022/10/27 09:28:39;;;;;;;5.53;2.75;;;15.30;99.90;;;;;;5030244;28;20033;-60
2022/10/27 09:31:07;;;;;;;5.20;3.08;;;15.40;99.90;;;;;;5030729;28;20141;-67
2022/10/27 09:33:35;;;;;;;7.50;3.33;;;15.40;99.90;;;;;;5033157;28;20036;-60
2022/10/27 09:36:22;;;;;;;5.60;2.95;;;15.50;99.90;;;;;;5025736;28;20049;-67
2022/10/27 09:38:47;;;;;;;4.72;2.92;;;15.50;99.90;;;;;;5045537;28;20079;-66
2022/10/27 09:41:13;;;;;;;4.63;2.75;;;15.60;99.90;;;;;;5031727;28;20025;-63
2022/10/27 09:43:39;;;;;;;5.03;2.72;;;15.70;99.90;;;;;;5033660;28;20061;-68
2022/10/27 09:46:23;;;;;;;5.43;2.42;;;15.80;99.90;;;;;;5031070;28;20044;-64
2022/10/27 09:48:53;;;;;;;6.93;3.13;;;15.90;99.90;;;;;;5032050;28;20048;-67
2022/10/27 09:51:30;;;;;;;6.30;2.58;;;16.00;99.90;;;;;;5032433;28;20108;-58
2022/10/27 09:53:56;;;;;;;7.05;3.10;;;16.10;99.90;;;;;;5023355;28;20053;-58
2022/10/27 09:56:30;;;;;;;4.22;2.10;;;16.30;99.90;;;;;;5033302;28;20079;-59
2022/10/27 09:59:01;;;;;;;4.45;2.30;;;16.40;99.90;;;;;;5032936;28;20075;-58
2022/10/27 10:01:42;;;;;;;5.15;2.00;;;16.60;99.90;;;;;;5029486;28;20036;-59
2022/10/27 10:04:30;;;;;;;2.75;1.90;;;16.70;99.90;;;;;;5030936;28;20034;-59
2022/10/27 10:07:01;;;;;;;7.20;1.98;;;16.90;99.90;;;;;;5034526;28;20048;-58
2022/10/27 10:09:35;;;;;;;2.97;1.63;;;17.10;99.90;;;;;;5033799;28;20038;-61
2022/10/27 10:12:33;;;;;;;3.67;1.92;;;17.20;99.90;;;;;;5034598;28;20027;-59
2022/10/27 10:15:16;;;;;;;5.70;1.63;;;17.30;99.90;;;;;;5000589;28;20057;-59
2022/10/27 10:17:50;;;;;;;3.80;1.98;;;17.40;99.90;;;;;;5034293;28;20121;-58
2022/10/27 10:20:41;;;;;;;4.43;1.52;;;17.50;99.90;;;;;;5034508;28;20020;-59
2022/10/27 10:23:22;;;;;;;4.25;1.55;;;17.60;99.90;;;;;;5033569;28;20017;-58
2022/10/27 10:25:49;;;;;;;2.25;1.23;;;17.60;99.90;;;;;;5033327;28;20105;-59
2022/10/27 10:28:27;;;;;;;3.55;1.50;;;17.70;99.90;;;;;;5033155;28;20041;-59
2022/10/27 10:30:55;;;;;;;5.32;1.70;;;17.70;99.90;;;;;;5032317;28;20100;-59
2022/10/27 10:33:24;;;;;;;3.75;1.30;;;17.80;99.90;;;;;;5033007;28;20450;-61
2022/10/27 10:35:51;;;;;;;2.90;1.13;;;17.90;99.90;;;;;;5032801;28;20021;-59
2022/10/27 10:38:22;;;;;;;3.38;1.40;;;17.90;99.90;;;;;;5032088;28;20122;-60
2022/10/27 10:41:04;;;;;;;3.28;1.13;;;18.00;99.90;;;;;;5033910;28;20026;-60
2022/10/27 10:43:30;;;;;;;2.55;1.20;;;18.10;99.90;;;;;;5032754;28;20072;-60
2022/10/27 10:45:56;;;;;;;2.20;1.15;;;18.20;99.90;;;;;;5033591;28;20041;-59
2022/10/27 10:48:45;;;;;;;3.05;1.17;;;18.30;99.90;;;;;;5033617;28;20421;-63
2022/10/27 10:51:12;;;;;;;2.72;1.20;;;18.40;99.90;;;;;;5033325;28;20022;-58
2022/10/27 10:54:04;;;;;;;3.70;1.20;;;18.40;99.90;;;;;;5033800;28;20025;-60
2022/10/27 10:56:36;;;;;;;1.83;1.00;;;18.50;99.90;;;;;;5026049;28;20041;-63
2022/10/27 10:59:14;;;;;;;2.35;1.10;;;18.60;99.90;;;;;;5033190;28;20443;-60
2022/10/27 11:01:59;;;;;;;3.28;1.00;;;18.70;99.90;;;;;;5033504;28;20478;-60
2022/10/27 11:04:27;;;;;;;2.22;1.15;;;18.70;99.90;;;;;;5031765;28;20029;-62
2022/10/27 11:07:19;;;;;;;2.28;1.20;;;18.80;99.90;;;;;;5032451;28;20064;-61
2022/10/27 11:10:08;;;;;;;1.73;1.10;;;18.90;99.90;;;;;;5032253;28;20381;-59
2022/10/27 11:13:01;;;;;;;4.32;1.30;;;18.90;99.90;;;;;;5031668;28;20026;-60
2022/10/27 11:15:42;;;;;;;5.00;1.33;;;19.00;99.90;;;;;;5035732;28;20025;-59
2022/10/27 11:18:14;;;;;;;;;;;19.00;99.90;;;;;;5033017;28;20025;-60
2022/10/27 11:20:41;;;;;;;3.05;1.42;;;19.10;99.90;;;;;;5033576;28;19911;-58
2022/10/27 11:23:15;;;;;;;4.05;1.00;;;19.10;99.90;;;;;;5033733;28;20044;-60
2022/10/27 11:25:41;;;;;;;2.05;1.13;;;19.20;99.90;;;;;;5032665;28;20470;-59
2022/10/27 11:28:24;;;;;;;4.30;1.55;;;19.20;99.90;;;;;;5033211;28;20036;-60
2022/10/27 11:30:58;;;;;;;1.92;0.95;;;19.30;99.70;;;;;;5033177;28;20018;-62
2022/10/27 11:33:33;;;;;;;4.90;1.42;;;19.30;99.70;;;;;;5032789;28;20034;-63
2022/10/27 11:36:17;;;;;;;2.17;1.00;;;19.40;99.50;;;;;;5033244;28;20148;-62
2022/10/27 11:38:46;;;;;;;2.03;1.15;;;19.40;99.60;;;;;;5033137;28;20215;-61
2022/10/27 11:41:27;;;;;;;1.42;0.90;;;19.50;99.40;;;;;;5032676;28;20059;-62
2022/10/27 11:44:01;;;;;;;;;;;19.60;99.30;;;;;;5033510;28;20025;-60
2022/10/27 11:46:34;;;;;;;2.75;1.50;;;19.60;99.10;;;;;;5032239;28;19959;-59
2022/10/27 11:49:10;;;;;;;3.42;1.13;;;19.60;98.90;;;;;;5032976;28;20025;-60
2022/10/27 11:51:58;;;;;;;3.35;1.10;;;19.70;98.70;;;;;;5033201;28;20128;-60
2022/10/27 11:54:25;;;;;;;2.65;0.82;;;19.70;98.50;;;;;;5032215;28;20029;-61
2022/10/27 11:57:09;;;;;;;2.63;1.13;;;19.60;98.30;;;;;;5036166;28;20052;-62
2022/10/27 11:59:40;;;;;;;2.90;1.10;;;19.60;97.80;;;;;;5036909;28;20119;-60
2022/10/27 12:02:36;;;;;;;2.25;1.08;;;19.60;97.90;;;;;;5036161;28;20017;-60
2022/10/27 12:05:22;;;;;;;2.15;1.25;;;19.60;97.80;;;;;;5037069;28;20021;-61
2022/10/27 12:08:12;;;;;;;2.30;1.20;;;19.60;97.80;;;;;;5036161;28;20022;-60
2022/10/27 12:10:48;;;;;;;1.33;0.90;;;19.60;97.50;;;;;;5036673;28;20509;-60
2022/10/27 12:13:24;;;;;;;1.52;1.02;;;19.70;97.60;;;;;;5036657;28;20017;-58
2022/10/27 12:16:04;;;;;;;2.90;1.17;;;19.80;97.40;;;;;;5035870;28;20025;-60
2022/10/27 12:18:45;;;;;;;2.92;0.73;;;19.80;97.70;;;;;;5036578;28;20028;-59
2022/10/27 12:21:16;;;;;;;2.63;1.02;;;19.80;97.50;;;;;;5036529;28;20037;-60
2022/10/27 12:23:54;;;;;;;2.78;1.58;;;19.80;97.50;;;;;;5035740;28;20022;-59
2022/10/27 12:26:35;;;;;;;3.55;1.48;;;19.80;97.20;;;;;;5036600;28;20033;-59
2022/10/27 12:29:03;;;;;;;2.33;0.98;;;19.80;97.30;;;;;;5035698;28;20112;-61
2022/10/27 12:31:32;;;;;;;3.10;1.25;;;19.80;97.50;;;;;;5036292;28;20021;-59
2022/10/27 12:34:01;;;;;;;3.10;1.33;;;19.80;97.60;;;;;;5036338;28;20059;-60
2022/10/27 12:36:44;;;;;;;1.70;1.00;;;19.90;97.60;;;;;;5035714;28;20018;-59
2022/10/27 12:39:25;;;;;;;3.03;1.42;;;20.00;97.50;;;;;;5036176;28;20108;-61
2022/10/27 12:42:10;;;;;;;;;;;20.00;97.30;;;;;;5036713;28;20072;-59
2022/10/27 12:44:44;;;;;;;3.42;0.90;;;20.00;97.40;;;;;;5035077;28;19905;-62
2022/10/27 12:47:46;;;;;;;3.13;0.80;;;20.10;97.40;;;;;;5036590;28;20060;-59
2022/10/27 12:50:22;;;;;;;3.72;1.10;;;20.00;97.20;;;;;;5035394;28;20080;-59
2022/10/27 12:52:59;;;;;;;4.38;1.50;;;20.00;97.30;;;;;;5036000;28;20087;-60
2022/10/27 12:55:51;;;;;;;2.45;0.98;;;19.90;97.30;;;;;;5034355;28;20048;-59
2022/10/27 12:58:19;;;;;;;2.20;0.90;;;19.90;97.30;;;;;;5032008;28;20037;-59
2022/10/27 13:01:02;;;;;;;2.50;0.90;;;19.90;97.40;;;;;;5035696;28;20029;-60
2022/10/27 13:03:51;;;;;;;2.15;1.13;;;20.00;97.30;;;;;;5035870;28;20110;-61
2022/10/27 13:06:35;;;;;;;2.25;1.20;;;20.00;97.20;;;;;;5035309;28;20029;-60